sensor_id;sensor_type;location;lat;lon;timestamp;pressure;altitude;pressure_sealevel;temperature;humidity
67099;BME280;54288;53.046;5.668;2023-09-19T00:00:42;100562.47;;;16.44;98.56
67099;BME280;54288;53.046;5.668;2023-09-19T00:03:10;100558.47;;;16.35;97.80
67099;BME280;54288;53.046;5.668;2023-09-19T00:05:38;100572.69;;;16.33;97.37
67099;BME280;54288;53.046;5.668;2023-09-19T00:08:04;100564.13;;;16.28;96.42
67099;BME280;54288;53.046;5.668;2023-09-19T00:10:32;100568.84;;;16.21;96.25
67099;BME280;54288;53.046;5.668;2023-09-19T00:13:04;100569.63;;;16.23;95.37
67099;BME280;54288;53.046;5.668;2023-09-19T00:15:40;100569.06;;;16.17;94.54
67099;BME280;54288;53.046;5.668;2023-09-19T00:18:07;100565.63;;;16.15;93.26
67099;BME280;54288;53.046;5.668;2023-09-19T00:20:37;100573.69;;;16.12;92.12
67099;BME280;54288;53.046;5.668;2023-09-19T00:23:04;100578.19;;;16.10;92.13
67099;BME280;54288;53.046;5.668;2023-09-19T00:25:37;100568.63;;;16.07;91.99
67099;BME280;54288;53.046;5.668;2023-09-19T00:28:04;100570.56;;;16.04;91.61
67099;BME280;54288;53.046;5.668;2023-09-19T00:30:32;100576.63;;;16.06;92.20
67099;BME280;54288;53.046;5.668;2023-09-19T00:32:58;100576.78;;;16.03;92.02
67099;BME280;54288;53.046;5.668;2023-09-19T00:35:24;100581.41;;;15.98;92.53
67099;BME280;54288;53.046;5.668;2023-09-19T00:37:50;100584.94;;;15.98;92.25
67099;BME280;54288;53.046;5.668;2023-09-19T00:40:16;100592.03;;;15.96;91.85
67099;BME280;54288;53.046;5.668;2023-09-19T00:42:43;100588.56;;;15.96;91.31
67099;BME280;54288;53.046;5.668;2023-09-19T00:45:11;100592.28;;;15.92;91.98
67099;BME280;54288;53.046;5.668;2023-09-19T00:47:49;100598.44;;;15.92;92.29
67099;BME280;54288;53.046;5.668;2023-09-19T00:50:18;100603.41;;;15.98;91.68
67099;BME280;54288;53.046;5.668;2023-09-19T00:52:46;100603.31;;;16.00;91.78
67099;BME280;54288;53.046;5.668;2023-09-19T00:55:16;100597.22;;;15.99;92.40
67099;BME280;54288;53.046;5.668;2023-09-19T00:57:42;100595.63;;;15.95;91.79
67099;BME280;54288;53.046;5.668;2023-09-19T01:00:10;100593.84;;;15.96;92.15
67099;BME280;54288;53.046;5.668;2023-09-19T01:02:41;100601.78;;;15.96;92.80
67099;BME280;54288;53.046;5.668;2023-09-19T01:05:09;100600.91;;;15.95;92.36
67099;BME280;54288;53.046;5.668;2023-09-19T01:07:36;100607.06;;;15.96;93.22
67099;BME280;54288;53.046;5.668;2023-09-19T01:10:06;100602.69;;;15.95;92.36
67099;BME280;54288;53.046;5.668;2023-09-19T01:15:44;100613.88;;;16.00;92.58
67099;BME280;54288;53.046;5.668;2023-09-19T01:26:24;100628.19;;;15.96;91.94
67099;BME280;54288;53.046;5.668;2023-09-19T01:32:04;100623.91;;;15.93;93.54
67099;BME280;54288;53.046;5.668;2023-09-19T01:34:49;100622.31;;;15.89;93.09
67099;BME280;54288;53.046;5.668;2023-09-19T01:37:17;100618.75;;;15.90;92.80
67099;BME280;54288;53.046;5.668;2023-09-19T01:39:52;100632.59;;;15.95;93.17
67099;BME280;54288;53.046;5.668;2023-09-19T01:42:28;100633.53;;;15.94;92.73
67099;BME280;54288;53.046;5.668;2023-09-19T01:45:06;100628.31;;;15.93;92.60
67099;BME280;54288;53.046;5.668;2023-09-19T01:47:48;100625.81;;;15.90;92.40
67099;BME280;54288;53.046;5.668;2023-09-19T01:53:05;100627.59;;;15.89;92.35
67099;BME280;54288;53.046;5.668;2023-09-19T01:55:41;100624.97;;;15.89;93.21
67099;BME280;54288;53.046;5.668;2023-09-19T01:58:27;100624.91;;;15.91;92.06
67099;BME280;54288;53.046;5.668;2023-09-19T02:00:59;100621.25;;;15.93;92.13
67099;BME280;54288;53.046;5.668;2023-09-19T02:03:26;100607.63;;;15.84;91.84
67099;BME280;54288;53.046;5.668;2023-09-19T02:05:54;100624.75;;;15.94;92.12
67099;BME280;54288;53.046;5.668;2023-09-19T02:08:22;100622.09;;;15.94;91.57
67099;BME280;54288;53.046;5.668;2023-09-19T02:10:51;100628.31;;;15.93;91.17
67099;BME280;54288;53.046;5.668;2023-09-19T02:13:20;100635.19;;;15.97;90.90
67099;BME280;54288;53.046;5.668;2023-09-19T02:15:47;100630.03;;;15.94;91.55
67099;BME280;54288;53.046;5.668;2023-09-19T02:18:13;100641.19;;;16.00;91.69
67099;BME280;54288;53.046;5.668;2023-09-19T02:20:41;100643.75;;;16.02;91.47
67099;BME280;54288;53.046;5.668;2023-09-19T02:23:09;100622.53;;;15.85;92.74
67099;BME280;54288;53.046;5.668;2023-09-19T02:25:35;100628.59;;;15.87;93.04
67099;BME280;54288;53.046;5.668;2023-09-19T02:28:03;100637.50;;;15.84;92.79
67099;BME280;54288;53.046;5.668;2023-09-19T02:30:29;100645.50;;;15.83;93.24
67099;BME280;54288;53.046;5.668;2023-09-19T02:32:55;100639.44;;;15.81;93.82
67099;BME280;54288;53.046;5.668;2023-09-19T02:35:21;100623.38;;;15.67;94.85
67099;BME280;54288;53.046;5.668;2023-09-19T02:37:48;100651.13;;;15.75;94.84
67099;BME280;54288;53.046;5.668;2023-09-19T02:40:15;100651.91;;;15.77;94.73
67099;BME280;54288;53.046;5.668;2023-09-19T02:42:55;100649.28;;;15.77;95.03
67099;BME280;54288;53.046;5.668;2023-09-19T02:45:22;100645.88;;;15.75;95.00
67099;BME280;54288;53.046;5.668;2023-09-19T02:47:49;100642.28;;;15.76;94.60
67099;BME280;54288;53.046;5.668;2023-09-19T02:50:16;100655.56;;;15.75;94.23
67099;BME280;54288;53.046;5.668;2023-09-19T02:52:42;100622.44;;;15.68;92.15
67099;BME280;54288;53.046;5.668;2023-09-19T02:55:09;100626.56;;;15.73;92.32
67099;BME280;54288;53.046;5.668;2023-09-19T02:57:36;100613.53;;;15.70;90.45
67099;BME280;54288;53.046;5.668;2023-09-19T03:00:07;100604.59;;;15.73;89.62
67099;BME280;54288;53.046;5.668;2023-09-19T03:02:36;100596.03;;;15.68;88.93
67099;BME280;54288;53.046;5.668;2023-09-19T03:05:04;100610.94;;;15.69;88.79
67099;BME280;54288;53.046;5.668;2023-09-19T03:07:30;100616.44;;;15.64;89.43
67099;BME280;54288;53.046;5.668;2023-09-19T03:09:56;100631.28;;;15.67;89.14
67099;BME280;54288;53.046;5.668;2023-09-19T03:12:22;100634.91;;;15.64;89.53
67099;BME280;54288;53.046;5.668;2023-09-19T03:14:48;100664.03;;;15.63;89.88
67099;BME280;54288;53.046;5.668;2023-09-19T03:17:13;100652.53;;;15.64;89.28
67099;BME280;54288;53.046;5.668;2023-09-19T03:19:40;100650.66;;;15.66;89.79
67099;BME280;54288;53.046;5.668;2023-09-19T03:22:07;100644.22;;;15.73;89.90
67099;BME280;54288;53.046;5.668;2023-09-19T03:24:33;100643.94;;;15.79;90.30
67099;BME280;54288;53.046;5.668;2023-09-19T03:27:02;100643.00;;;15.80;90.07
67099;BME280;54288;53.046;5.668;2023-09-19T03:29:29;100637.56;;;15.83;90.97
67099;BME280;54288;53.046;5.668;2023-09-19T03:31:54;100633.16;;;15.83;92.57
67099;BME280;54288;53.046;5.668;2023-09-19T03:34:20;100631.56;;;15.79;93.93
67099;BME280;54288;53.046;5.668;2023-09-19T03:36:46;100642.94;;;15.81;94.39
67099;BME280;54288;53.046;5.668;2023-09-19T03:39:12;100646.44;;;15.82;95.41
67099;BME280;54288;53.046;5.668;2023-09-19T03:41:40;100644.72;;;15.81;95.40
67099;BME280;54288;53.046;5.668;2023-09-19T03:44:06;100656.16;;;15.81;95.32
67099;BME280;54288;53.046;5.668;2023-09-19T03:46:32;100656.22;;;15.80;95.81
67099;BME280;54288;53.046;5.668;2023-09-19T03:48:59;100644.00;;;15.77;95.94
67099;BME280;54288;53.046;5.668;2023-09-19T03:51:25;100646.47;;;15.80;95.84
67099;BME280;54288;53.046;5.668;2023-09-19T03:53:51;100652.69;;;15.79;96.14
67099;BME280;54288;53.046;5.668;2023-09-19T03:56:17;100658.03;;;15.78;96.54
67099;BME280;54288;53.046;5.668;2023-09-19T03:58:43;100668.97;;;15.89;95.89
67099;BME280;54288;53.046;5.668;2023-09-19T04:01:08;100668.34;;;15.84;96.16
67099;BME280;54288;53.046;5.668;2023-09-19T04:03:35;100659.69;;;15.80;97.04
67099;BME280;54288;53.046;5.668;2023-09-19T04:06:15;100654.34;;;15.82;96.42
67099;BME280;54288;53.046;5.668;2023-09-19T04:08:41;100656.94;;;15.83;96.10
67099;BME280;54288;53.046;5.668;2023-09-19T04:11:07;100661.16;;;15.87;95.87
67099;BME280;54288;53.046;5.668;2023-09-19T04:13:33;100648.22;;;15.81;95.18
67099;BME280;54288;53.046;5.668;2023-09-19T04:15:59;100661.72;;;15.94;95.12
67099;BME280;54288;53.046;5.668;2023-09-19T04:18:25;100643.50;;;15.88;95.81
67099;BME280;54288;53.046;5.668;2023-09-19T04:20:52;100666.06;;;15.95;95.03
67099;BME280;54288;53.046;5.668;2023-09-19T04:23:18;100668.72;;;15.95;94.78
67099;BME280;54288;53.046;5.668;2023-09-19T04:25:47;100676.84;;;15.90;94.69
67099;BME280;54288;53.046;5.668;2023-09-19T04:28:14;100678.44;;;15.94;94.45
67099;BME280;54288;53.046;5.668;2023-09-19T04:30:41;100684.66;;;15.93;93.87
67099;BME280;54288;53.046;5.668;2023-09-19T04:33:07;100667.88;;;15.94;93.71
67099;BME280;54288;53.046;5.668;2023-09-19T04:35:34;100672.28;;;15.94;92.84
67099;BME280;54288;53.046;5.668;2023-09-19T04:38:00;100677.56;;;15.94;92.75
67099;BME280;54288;53.046;5.668;2023-09-19T04:40:26;100679.22;;;15.96;91.87
67099;BME280;54288;53.046;5.668;2023-09-19T04:42:56;100684.44;;;15.98;90.92
67099;BME280;54288;53.046;5.668;2023-09-19T04:45:28;100675.56;;;15.99;90.49
67099;BME280;54288;53.046;5.668;2023-09-19T04:47:55;100674.84;;;15.95;89.16
67099;BME280;54288;53.046;5.668;2023-09-19T04:50:21;100674.81;;;15.97;88.30
67099;BME280;54288;53.046;5.668;2023-09-19T04:52:51;100681.00;;;15.96;87.74
67099;BME280;54288;53.046;5.668;2023-09-19T04:55:18;100684.44;;;15.98;87.61
67099;BME280;54288;53.046;5.668;2023-09-19T04:57:45;100696.72;;;15.99;87.04
67099;BME280;54288;53.046;5.668;2023-09-19T05:00:15;100675.72;;;15.96;86.59
67099;BME280;54288;53.046;5.668;2023-09-19T05:02:42;100674.84;;;15.95;86.44
67099;BME280;54288;53.046;5.668;2023-09-19T05:05:10;100684.16;;;16.04;86.81
67099;BME280;54288;53.046;5.668;2023-09-19T05:07:41;100690.16;;;16.07;86.62
67099;BME280;54288;53.046;5.668;2023-09-19T05:10:07;100691.03;;;16.08;86.99
67099;BME280;54288;53.046;5.668;2023-09-19T05:12:36;100688.38;;;16.08;87.53
67099;BME280;54288;53.046;5.668;2023-09-19T05:15:06;100699.72;;;16.10;88.00
67099;BME280;54288;53.046;5.668;2023-09-19T05:17:35;100690.97;;;16.09;88.18
67099;BME280;54288;53.046;5.668;2023-09-19T05:20:01;100684.94;;;16.06;87.79
67099;BME280;54288;53.046;5.668;2023-09-19T05:22:41;100682.16;;;16.09;88.68
67099;BME280;54288;53.046;5.668;2023-09-19T05:25:09;100688.38;;;16.08;88.07
67099;BME280;54288;53.046;5.668;2023-09-19T05:27:35;100694.44;;;16.10;87.86
67099;BME280;54288;53.046;5.668;2023-09-19T05:30:01;100685.59;;;16.11;87.65
67099;BME280;54288;53.046;5.668;2023-09-19T05:32:26;100693.38;;;16.14;87.91
67099;BME280;54288;53.046;5.668;2023-09-19T05:34:52;100707.44;;;16.14;87.42
67099;BME280;54288;53.046;5.668;2023-09-19T05:37:22;100691.53;;;16.16;87.41
67099;BME280;54288;53.046;5.668;2023-09-19T05:39:49;100693.22;;;16.17;87.61
67099;BME280;54288;53.046;5.668;2023-09-19T05:42:14;100696.75;;;16.17;87.77
67099;BME280;54288;53.046;5.668;2023-09-19T05:44:40;100704.59;;;16.19;87.72
67099;BME280;54288;53.046;5.668;2023-09-19T05:47:06;100702.75;;;16.21;88.79
67099;BME280;54288;53.046;5.668;2023-09-19T05:49:37;100697.63;;;16.18;88.28
67099;BME280;54288;53.046;5.668;2023-09-19T05:52:06;100706.09;;;16.24;88.02
67099;BME280;54288;53.046;5.668;2023-09-19T05:54:32;100698.44;;;16.18;88.11
67099;BME280;54288;53.046;5.668;2023-09-19T05:57:02;100714.75;;;16.28;88.06
67099;BME280;54288;53.046;5.668;2023-09-19T05:59:28;100721.63;;;16.32;87.00
67099;BME280;54288;53.046;5.668;2023-09-19T06:01:54;100717.53;;;16.25;87.39
67099;BME280;54288;53.046;5.668;2023-09-19T06:04:20;100719.19;;;16.27;87.36
67099;BME280;54288;53.046;5.668;2023-09-19T06:06:46;100717.25;;;16.31;87.83
67099;BME280;54288;53.046;5.668;2023-09-19T06:09:14;100721.63;;;16.32;87.69
67099;BME280;54288;53.046;5.668;2023-09-19T06:11:43;100718.50;;;16.42;87.49
67099;BME280;54288;53.046;5.668;2023-09-19T06:14:09;100718.22;;;16.48;87.37
67099;BME280;54288;53.046;5.668;2023-09-19T06:16:36;100724.22;;;16.52;86.90
67099;BME280;54288;53.046;5.668;2023-09-19T06:19:04;100717.38;;;16.48;86.73
67099;BME280;54288;53.046;5.668;2023-09-19T06:21:32;100721.66;;;16.50;87.06
67099;BME280;54288;53.046;5.668;2023-09-19T06:23:57;100698.34;;;16.40;86.56
67099;BME280;54288;53.046;5.668;2023-09-19T06:26:23;100718.31;;;16.47;86.07
67099;BME280;54288;53.046;5.668;2023-09-19T06:28:52;100711.63;;;16.57;85.09
67099;BME280;54288;53.046;5.668;2023-09-19T06:31:18;100708.63;;;16.64;85.75
67099;BME280;54288;53.046;5.668;2023-09-19T06:33:43;100714.69;;;16.85;85.15
67099;BME280;54288;53.046;5.668;2023-09-19T06:36:09;100725.78;;;16.93;84.76
67099;BME280;54288;53.046;5.668;2023-09-19T06:38:36;100709.03;;;16.92;83.26
67099;BME280;54288;53.046;5.668;2023-09-19T06:41:04;100718.66;;;17.12;82.27
67099;BME280;54288;53.046;5.668;2023-09-19T06:43:31;100705.38;;;17.30;81.60
67099;BME280;54288;53.046;5.668;2023-09-19T06:46:02;100708.75;;;17.51;81.05
67099;BME280;54288;53.046;5.668;2023-09-19T06:48:29;100717.78;;;17.64;80.55
67099;BME280;54288;53.046;5.668;2023-09-19T06:50:58;100711.03;;;17.75;79.80
67099;BME280;54288;53.046;5.668;2023-09-19T06:53:28;100722.28;;;17.96;79.10
67099;BME280;54288;53.046;5.668;2023-09-19T06:55:57;100715.78;;;18.01;78.39
67099;BME280;54288;53.046;5.668;2023-09-19T06:58:23;100704.88;;;18.07;77.24
67099;BME280;54288;53.046;5.668;2023-09-19T07:00:49;100712.94;;;18.06;77.53
67099;BME280;54288;53.046;5.668;2023-09-19T07:03:15;100712.19;;;18.02;76.08
67099;BME280;54288;53.046;5.668;2023-09-19T07:05:44;100718.00;;;17.93;75.85
67099;BME280;54288;53.046;5.668;2023-09-19T07:08:10;100724.31;;;17.91;76.37
67099;BME280;54288;53.046;5.668;2023-09-19T07:10:38;100733.34;;;17.87;76.71
67099;BME280;54288;53.046;5.668;2023-09-19T07:13:07;100721.38;;;17.80;77.11
67099;BME280;54288;53.046;5.668;2023-09-19T07:15:37;100720.75;;;17.75;77.93
67099;BME280;54288;53.046;5.668;2023-09-19T07:18:07;100732.09;;;17.77;78.46
67099;BME280;54288;53.046;5.668;2023-09-19T07:20:36;100729.31;;;17.80;79.20
67099;BME280;54288;53.046;5.668;2023-09-19T07:23:02;100737.56;;;17.91;78.94
67099;BME280;54288;53.046;5.668;2023-09-19T07:25:28;100731.88;;;17.98;78.55
67099;BME280;54288;53.046;5.668;2023-09-19T07:27:58;100735.34;;;18.16;77.41
67099;BME280;54288;53.046;5.668;2023-09-19T07:30:26;100747.03;;;18.29;77.41
67099;BME280;54288;53.046;5.668;2023-09-19T07:32:52;100745.88;;;18.50;77.52
67099;BME280;54288;53.046;5.668;2023-09-19T07:35:18;100736.75;;;18.55;76.91
67099;BME280;54288;53.046;5.668;2023-09-19T07:37:48;100739.56;;;18.68;76.21
67099;BME280;54288;53.046;5.668;2023-09-19T07:40:18;100730.69;;;18.69;76.20
67099;BME280;54288;53.046;5.668;2023-09-19T07:42:44;100738.91;;;18.80;76.37
67099;BME280;54288;53.046;5.668;2023-09-19T07:45:12;100749.94;;;18.88;76.21
67099;BME280;54288;53.046;5.668;2023-09-19T07:47:50;100738.38;;;18.73;75.96
67099;BME280;54288;53.046;5.668;2023-09-19T07:50:17;100744.91;;;18.83;76.48
67099;BME280;54288;53.046;5.668;2023-09-19T07:52:48;100736.50;;;18.75;76.04
67099;BME280;54288;53.046;5.668;2023-09-19T07:55:16;100734.09;;;18.71;75.88
67099;BME280;54288;53.046;5.668;2023-09-19T07:57:43;100735.81;;;18.87;74.77
67099;BME280;54288;53.046;5.668;2023-09-19T08:00:09;100737.09;;;18.80;74.15
67099;BME280;54288;53.046;5.668;2023-09-19T08:02:42;100732.53;;;18.82;73.86
67099;BME280;54288;53.046;5.668;2023-09-19T08:05:10;100719.66;;;18.92;74.21
67099;BME280;54288;53.046;5.668;2023-09-19T08:07:37;100727.84;;;19.03;74.54
67099;BME280;54288;53.046;5.668;2023-09-19T08:10:07;100727.25;;;18.98;75.06
67099;BME280;54288;53.046;5.668;2023-09-19T08:12:36;100727.41;;;18.95;73.00
67099;BME280;54288;53.046;5.668;2023-09-19T08:15:03;100734.09;;;19.02;72.74
67099;BME280;54288;53.046;5.668;2023-09-19T08:17:28;100729.66;;;19.02;70.79
67099;BME280;54288;53.046;5.668;2023-09-19T08:19:54;100727.84;;;19.03;69.19
67099;BME280;54288;53.046;5.668;2023-09-19T08:22:20;100723.66;;;18.99;67.84
67099;BME280;54288;53.046;5.668;2023-09-19T08:24:47;100722.00;;;19.12;66.63
67099;BME280;54288;53.046;5.668;2023-09-19T08:27:13;100733.13;;;19.18;67.01
67099;BME280;54288;53.046;5.668;2023-09-19T08:29:39;100732.47;;;19.15;66.52
67099;BME280;54288;53.046;5.668;2023-09-19T08:32:04;100721.44;;;19.22;65.80
67099;BME280;54288;53.046;5.668;2023-09-19T08:34:30;100714.81;;;19.29;66.48
67099;BME280;54288;53.046;5.668;2023-09-19T08:36:58;100715.50;;;19.33;66.34
67099;BME280;54288;53.046;5.668;2023-09-19T08:39:26;100715.31;;;19.36;67.10
67099;BME280;54288;53.046;5.668;2023-09-19T08:42:00;100719.94;;;19.48;67.32
67099;BME280;54288;53.046;5.668;2023-09-19T08:44:27;100727.91;;;19.48;66.58
67099;BME280;54288;53.046;5.668;2023-09-19T08:47:09;100720.25;;;19.57;67.45
67099;BME280;54288;53.046;5.668;2023-09-19T08:49:37;100721.06;;;19.58;66.89
67099;BME280;54288;53.046;5.668;2023-09-19T08:52:32;100719.06;;;19.77;65.74
67099;BME280;54288;53.046;5.668;2023-09-19T08:55:03;100710.88;;;19.80;64.52
67099;BME280;54288;53.046;5.668;2023-09-19T08:57:36;100711.09;;;19.91;63.55
67099;BME280;54288;53.046;5.668;2023-09-19T09:00:08;100727.25;;;20.02;62.72
67099;BME280;54288;53.046;5.668;2023-09-19T09:02:38;100733.59;;;19.99;62.05
67099;BME280;54288;53.046;5.668;2023-09-19T09:05:11;100727.41;;;19.99;61.91
67099;BME280;54288;53.046;5.668;2023-09-19T09:07:40;100734.03;;;20.21;62.71
67099;BME280;54288;53.046;5.668;2023-09-19T09:10:07;100724.06;;;20.25;63.39
67099;BME280;54288;53.046;5.668;2023-09-19T09:12:35;100714.28;;;20.25;63.39
67099;BME280;54288;53.046;5.668;2023-09-19T09:15:05;100706.31;;;20.25;62.49
67099;BME280;54288;53.046;5.668;2023-09-19T09:17:31;100720.34;;;20.27;62.60
67099;BME280;54288;53.046;5.668;2023-09-19T09:19:57;100711.31;;;20.44;63.17
67099;BME280;54288;53.046;5.668;2023-09-19T09:22:22;100705.91;;;20.45;62.84
67099;BME280;54288;53.046;5.668;2023-09-19T09:24:53;100705.44;;;20.53;62.67
67099;BME280;54288;53.046;5.668;2023-09-19T09:27:20;100708.56;;;20.45;62.64
67099;BME280;54288;53.046;5.668;2023-09-19T09:29:48;100702.31;;;20.32;64.06
67099;BME280;54288;53.046;5.668;2023-09-19T09:32:28;100712.00;;;20.19;64.11
67099;BME280;54288;53.046;5.668;2023-09-19T09:34:57;100700.13;;;20.39;64.22
67099;BME280;54288;53.046;5.668;2023-09-19T09:37:24;100705.16;;;20.43;63.73
67099;BME280;54288;53.046;5.668;2023-09-19T09:40:00;100702.03;;;20.51;64.07
67099;BME280;54288;53.046;5.668;2023-09-19T09:42:45;100705.22;;;20.56;64.01
67099;BME280;54288;53.046;5.668;2023-09-19T09:45:22;100697.09;;;20.45;63.95
67099;BME280;54288;53.046;5.668;2023-09-19T09:48:03;100698.59;;;20.49;64.12
67099;BME280;54288;53.046;5.668;2023-09-19T09:50:36;100697.84;;;20.33;64.50
67099;BME280;54288;53.046;5.668;2023-09-19T09:53:19;100708.41;;;20.20;64.46
67099;BME280;54288;53.046;5.668;2023-09-19T09:58:28;100709.63;;;20.15;69.50
67099;BME280;54288;53.046;5.668;2023-09-19T10:01:01;100692.53;;;20.19;73.51
67099;BME280;54288;53.046;5.668;2023-09-19T10:03:41;100686.47;;;20.17;75.62
67099;BME280;54288;53.046;5.668;2023-09-19T10:06:15;100682.56;;;20.08;76.59
67099;BME280;54288;53.046;5.668;2023-09-19T10:12:03;100670.13;;;20.23;76.88
67099;BME280;54288;53.046;5.668;2023-09-19T10:14:35;100686.94;;;20.09;77.31
67099;BME280;54288;53.046;5.668;2023-09-19T10:17:05;100664.19;;;19.90;77.74
67099;BME280;54288;53.046;5.668;2023-09-19T10:19:54;100669.59;;;19.88;77.71
67099;BME280;54288;53.046;5.668;2023-09-19T10:22:24;100661.06;;;19.97;78.02
67099;BME280;54288;53.046;5.668;2023-09-19T10:24:57;100670.47;;;19.89;78.71
67099;BME280;54288;53.046;5.668;2023-09-19T10:27:26;100669.09;;;19.82;79.79
67099;BME280;54288;53.046;5.668;2023-09-19T10:29:53;100653.63;;;19.60;80.36
67099;BME280;54288;53.046;5.668;2023-09-19T10:32:28;100665.84;;;19.49;81.14
67099;BME280;54288;53.046;5.668;2023-09-19T10:34:59;100670.84;;;19.39;81.21
67099;BME280;54288;53.046;5.668;2023-09-19T10:37:27;100661.63;;;19.15;81.73
67099;BME280;54288;53.046;5.668;2023-09-19T10:39:56;100646.91;;;19.10;82.23
67099;BME280;54288;53.046;5.668;2023-09-19T10:42:25;100661.63;;;19.15;82.51
67099;BME280;54288;53.046;5.668;2023-09-19T10:44:54;100669.59;;;19.15;83.02
67099;BME280;54288;53.046;5.668;2023-09-19T10:47:26;100663.19;;;19.04;83.95
67099;BME280;54288;53.046;5.668;2023-09-19T10:49:51;100648.00;;;19.21;84.15
67099;BME280;54288;53.046;5.668;2023-09-19T10:52:24;100660.59;;;19.18;84.31
67099;BME280;54288;53.046;5.668;2023-09-19T10:54:54;100631.31;;;19.19;84.95
67099;BME280;54288;53.046;5.668;2023-09-19T10:57:24;100652.97;;;19.12;85.09
67099;BME280;54288;53.046;5.668;2023-09-19T11:00:09;100641.53;;;19.11;86.05
67099;BME280;54288;53.046;5.668;2023-09-19T11:03:16;100629.66;;;19.03;86.19
67099;BME280;54288;53.046;5.668;2023-09-19T11:06:11;100638.16;;;19.08;86.44
67099;BME280;54288;53.046;5.668;2023-09-19T11:08:53;100632.09;;;19.21;86.33
67099;BME280;54288;53.046;5.668;2023-09-19T11:14:15;100622.66;;;19.16;86.29
67099;BME280;54288;53.046;5.668;2023-09-19T11:30:38;100616.00;;;19.09;88.50
67099;BME280;54288;53.046;5.668;2023-09-19T11:33:29;100618.97;;;18.89;91.44
67099;BME280;54288;53.046;5.668;2023-09-19T11:36:10;100623.19;;;18.77;93.69
67099;BME280;54288;53.046;5.668;2023-09-19T11:38:57;100624.22;;;18.59;96.59
67099;BME280;54288;53.046;5.668;2023-09-19T11:46:30;100646.75;;;18.20;100.00
67099;BME280;54288;53.046;5.668;2023-09-19T11:49:05;100648.72;;;18.16;100.00
67099;BME280;54288;53.046;5.668;2023-09-19T11:51:45;100632.38;;;18.08;100.00
67099;BME280;54288;53.046;5.668;2023-09-19T11:54:14;100637.94;;;18.04;100.00
67099;BME280;54288;53.046;5.668;2023-09-19T11:56:44;100647.97;;;18.14;100.00
67099;BME280;54288;53.046;5.668;2023-09-19T11:59:11;100631.06;;;18.00;100.00
67099;BME280;54288;53.046;5.668;2023-09-19T12:01:51;100623.06;;;18.17;100.00
67099;BME280;54288;53.046;5.668;2023-09-19T12:07:07;100609.16;;;18.60;100.00
67099;BME280;54288;53.046;5.668;2023-09-19T12:09:39;100609.50;;;18.69;100.00
67099;BME280;54288;53.046;5.668;2023-09-19T12:12:10;100598.19;;;18.66;100.00
67099;BME280;54288;53.046;5.668;2023-09-19T12:14:50;100603.16;;;18.72;100.00
67099;BME280;54288;53.046;5.668;2023-09-19T12:17:17;100601.53;;;18.69;100.00
67099;BME280;54288;53.046;5.668;2023-09-19T12:19:55;100585.25;;;18.75;100.00
67099;BME280;54288;53.046;5.668;2023-09-19T12:22:21;100587.31;;;18.70;100.00
67099;BME280;54288;53.046;5.668;2023-09-19T12:24:47;100586.41;;;18.71;100.00
67099;BME280;54288;53.046;5.668;2023-09-19T12:27:13;100580.22;;;18.71;100.00
67099;BME280;54288;53.046;5.668;2023-09-19T12:29:47;100577.50;;;18.72;100.00
67099;BME280;54288;53.046;5.668;2023-09-19T12:32:16;100581.25;;;18.68;100.00
67099;BME280;54288;53.046;5.668;2023-09-19T12:34:51;100609.75;;;18.65;100.00
67099;BME280;54288;53.046;5.668;2023-09-19T12:37:18;100589.50;;;18.64;100.00
67099;BME280;54288;53.046;5.668;2023-09-19T12:39:51;100615.16;;;18.63;100.00
67099;BME280;54288;53.046;5.668;2023-09-19T12:42:24;100591.03;;;18.52;100.00
67099;BME280;54288;53.046;5.668;2023-09-19T12:44:59;100604.16;;;18.40;100.00
67099;BME280;54288;53.046;5.668;2023-09-19T12:47:27;100602.88;;;18.31;100.00
67099;BME280;54288;53.046;5.668;2023-09-19T12:50:15;100603.28;;;18.39;100.00
67099;BME280;54288;53.046;5.668;2023-09-19T12:52:46;100594.28;;;18.42;100.00
67099;BME280;54288;53.046;5.668;2023-09-19T13:00:40;100575.06;;;18.38;100.00
67099;BME280;54288;53.046;5.668;2023-09-19T13:03:28;100591.66;;;18.42;100.00
67099;BME280;54288;53.046;5.668;2023-09-19T13:05:58;100577.28;;;18.46;100.00
67099;BME280;54288;53.046;5.668;2023-09-19T13:08:31;100558.72;;;18.46;100.00
67099;BME280;54288;53.046;5.668;2023-09-19T13:11:06;100563.22;;;18.44;100.00
67099;BME280;54288;53.046;5.668;2023-09-19T13:13:37;100571.63;;;18.52;100.00
67099;BME280;54288;53.046;5.668;2023-09-19T13:16:03;100573.25;;;18.54;100.00
67099;BME280;54288;53.046;5.668;2023-09-19T13:21:34;100587.78;;;18.63;100.00
67099;BME280;54288;53.046;5.668;2023-09-19T13:24:23;100572.28;;;18.71;100.00
67099;BME280;54288;53.046;5.668;2023-09-19T13:26:51;100574.41;;;18.80;100.00
67099;BME280;54288;53.046;5.668;2023-09-19T13:29:17;100563.91;;;18.92;100.00
67099;BME280;54288;53.046;5.668;2023-09-19T13:31:51;100558.72;;;19.05;100.00
67099;BME280;54288;53.046;5.668;2023-09-19T13:34:19;100551.06;;;19.14;100.00
67099;BME280;54288;53.046;5.668;2023-09-19T13:36:46;100560.75;;;19.15;100.00
67099;BME280;54288;53.046;5.668;2023-09-19T13:39:16;100549.28;;;19.15;100.00
67099;BME280;54288;53.046;5.668;2023-09-19T13:41:44;100542.06;;;19.17;100.00
67099;BME280;54288;53.046;5.668;2023-09-19T13:44:10;100542.44;;;19.11;100.00
67099;BME280;54288;53.046;5.668;2023-09-19T13:46:36;100543.78;;;19.18;100.00
67099;BME280;54288;53.046;5.668;2023-09-19T13:49:02;100533.53;;;19.12;100.00
67099;BME280;54288;53.046;5.668;2023-09-19T13:51:31;100545.38;;;19.06;100.00
67099;BME280;54288;53.046;5.668;2023-09-19T13:53:58;100548.19;;;19.03;100.00
67099;BME280;54288;53.046;5.668;2023-09-19T13:56:25;100554.53;;;19.01;100.00